sensor_id;sensor_type;location;lat;lon;timestamp;P1;durP1;ratioP1;P2;durP2;ratioP2
14768;SDS011;7476;49.404;11.152;2022-12-07T00:01:04;9.13;;;7.73;;
14768;SDS011;7476;49.404;11.152;2022-12-07T00:03:32;8.47;;;7.40;;
14768;SDS011;7476;49.404;11.152;2022-12-07T00:05:59;7.90;;;6.40;;
14768;SDS011;7476;49.404;11.152;2022-12-07T00:08:27;8.63;;;7.07;;
14768;SDS011;7476;49.404;11.152;2022-12-07T00:10:54;8.63;;;7.67;;
14768;SDS011;7476;49.404;11.152;2022-12-07T00:13:21;8.63;;;6.90;;
14768;SDS011;7476;49.404;11.152;2022-12-07T00:15:48;9.63;;;7.33;;
14768;SDS011;7476;49.404;11.152;2022-12-07T00:18:16;9.40;;;7.27;;
14768;SDS011;7476;49.404;11.152;2022-12-07T00:20:42;8.33;;;7.03;;
14768;SDS011;7476;49.404;11.152;2022-12-07T00:23:09;9.00;;;7.33;;
14768;SDS011;7476;49.404;11.152;2022-12-07T00:25:36;8.07;;;7.03;;
14768;SDS011;7476;49.404;11.152;2022-12-07T00:28:02;9.30;;;6.87;;
14768;SDS011;7476;49.404;11.152;2022-12-07T00:30:29;8.40;;;7.50;;
14768;SDS011;7476;49.404;11.152;2022-12-07T00:32:56;9.33;;;8.00;;
14768;SDS011;7476;49.404;11.152;2022-12-07T00:35:24;9.20;;;7.50;;
14768;SDS011;7476;49.404;11.152;2022-12-07T00:37:51;9.10;;;7.50;;
14768;SDS011;7476;49.404;11.152;2022-12-07T00:40:17;8.13;;;6.73;;
14768;SDS011;7476;49.404;11.152;2022-12-07T00:42:45;9.90;;;7.90;;
14768;SDS011;7476;49.404;11.152;2022-12-07T00:45:12;10.73;;;8.60;;
14768;SDS011;7476;49.404;11.152;2022-12-07T00:47:39;8.50;;;7.63;;
14768;SDS011;7476;49.404;11.152;2022-12-07T00:50:06;9.60;;;7.97;;
14768;SDS011;7476;49.404;11.152;2022-12-07T00:52:34;9.43;;;7.40;;
14768;SDS011;7476;49.404;11.152;2022-12-07T00:55:01;10.20;;;7.67;;
14768;SDS011;7476;49.404;11.152;2022-12-07T00:57:28;8.33;;;7.43;;
14768;SDS011;7476;49.404;11.152;2022-12-07T00:59:56;10.13;;;8.23;;
14768;SDS011;7476;49.404;11.152;2022-12-07T01:02:25;10.07;;;8.10;;
14768;SDS011;7476;49.404;11.152;2022-12-07T01:04:52;9.57;;;7.83;;
14768;SDS011;7476;49.404;11.152;2022-12-07T01:07:18;8.60;;;7.60;;
14768;SDS011;7476;49.404;11.152;2022-12-07T01:09:47;9.67;;;7.87;;
14768;SDS011;7476;49.404;11.152;2022-12-07T01:12:13;9.70;;;7.60;;
14768;SDS011;7476;49.404;11.152;2022-12-07T01:14:41;9.90;;;8.07;;
14768;SDS011;7476;49.404;11.152;2022-12-07T01:17:07;9.43;;;7.87;;
14768;SDS011;7476;49.404;11.152;2022-12-07T01:19:34;10.47;;;7.77;;
14768;SDS011;7476;49.404;11.152;2022-12-07T01:22:01;9.77;;;8.37;;
14768;SDS011;7476;49.404;11.152;2022-12-07T01:24:28;9.50;;;8.30;;
14768;SDS011;7476;49.404;11.152;2022-12-07T01:26:56;9.70;;;8.37;;
14768;SDS011;7476;49.404;11.152;2022-12-07T01:29:22;8.37;;;7.50;;
14768;SDS011;7476;49.404;11.152;2022-12-07T01:31:49;10.83;;;9.07;;
14768;SDS011;7476;49.404;11.152;2022-12-07T01:34:16;9.37;;;7.80;;
14768;SDS011;7476;49.404;11.152;2022-12-07T01:36:42;9.80;;;8.00;;
14768;SDS011;7476;49.404;11.152;2022-12-07T01:39:09;9.30;;;7.70;;
14768;SDS011;7476;49.404;11.152;2022-12-07T01:41:37;9.80;;;8.27;;
14768;SDS011;7476;49.404;11.152;2022-12-07T01:44:13;9.30;;;8.30;;
14768;SDS011;7476;49.404;11.152;2022-12-07T01:46:45;9.93;;;8.23;;
14768;SDS011;7476;49.404;11.152;2022-12-07T01:49:16;9.27;;;7.77;;
14768;SDS011;7476;49.404;11.152;2022-12-07T01:51:47;9.33;;;8.07;;
14768;SDS011;7476;49.404;11.152;2022-12-07T01:54:16;9.93;;;8.40;;
14768;SDS011;7476;49.404;11.152;2022-12-07T01:56:45;10.13;;;8.27;;
14768;SDS011;7476;49.404;11.152;2022-12-07T01:59:18;11.37;;;8.70;;
14768;SDS011;7476;49.404;11.152;2022-12-07T02:01:47;9.57;;;8.17;;
14768;SDS011;7476;49.404;11.152;2022-12-07T02:04:14;9.67;;;7.93;;
14768;SDS011;7476;49.404;11.152;2022-12-07T02:06:41;9.80;;;8.20;;
14768;SDS011;7476;49.404;11.152;2022-12-07T02:09:09;11.27;;;8.73;;
14768;SDS011;7476;49.404;11.152;2022-12-07T02:11:37;10.67;;;8.67;;
14768;SDS011;7476;49.404;11.152;2022-12-07T02:14:05;11.07;;;8.83;;
14768;SDS011;7476;49.404;11.152;2022-12-07T02:16:34;11.00;;;8.83;;
14768;SDS011;7476;49.404;11.152;2022-12-07T02:22:08;11.33;;;8.80;;
14768;SDS011;7476;49.404;11.152;2022-12-07T02:24:46;11.80;;;9.10;;
14768;SDS011;7476;49.404;11.152;2022-12-07T02:30:11;12.00;;;9.00;;
14768;SDS011;7476;49.404;11.152;2022-12-07T02:32:43;12.90;;;9.47;;
14768;SDS011;7476;49.404;11.152;2022-12-07T02:35:15;11.27;;;9.33;;
14768;SDS011;7476;49.404;11.152;2022-12-07T02:37:48;12.07;;;9.33;;
14768;SDS011;7476;49.404;11.152;2022-12-07T02:40:22;14.00;;;9.77;;
14768;SDS011;7476;49.404;11.152;2022-12-07T02:42:55;11.57;;;9.23;;
14768;SDS011;7476;49.404;11.152;2022-12-07T02:45:28;11.17;;;9.20;;
14768;SDS011;7476;49.404;11.152;2022-12-07T02:47:57;12.80;;;9.73;;
14768;SDS011;7476;49.404;11.152;2022-12-07T02:50:26;12.90;;;9.63;;
14768;SDS011;7476;49.404;11.152;2022-12-07T02:52:53;13.33;;;10.57;;
14768;SDS011;7476;49.404;11.152;2022-12-07T02:55:22;11.37;;;9.30;;
14768;SDS011;7476;49.404;11.152;2022-12-07T02:57:56;14.40;;;9.63;;
14768;SDS011;7476;49.404;11.152;2022-12-07T03:00:52;12.93;;;9.70;;
14768;SDS011;7476;49.404;11.152;2022-12-07T03:03:24;15.30;;;10.80;;
14768;SDS011;7476;49.404;11.152;2022-12-07T03:08:43;14.03;;;10.53;;
14768;SDS011;7476;49.404;11.152;2022-12-07T03:11:14;13.57;;;10.47;;
14768;SDS011;7476;49.404;11.152;2022-12-07T03:13:47;14.90;;;10.33;;
14768;SDS011;7476;49.404;11.152;2022-12-07T03:16:19;13.13;;;10.43;;
14768;SDS011;7476;49.404;11.152;2022-12-07T03:18:49;12.37;;;9.23;;
14768;SDS011;7476;49.404;11.152;2022-12-07T03:21:20;15.30;;;10.47;;
14768;SDS011;7476;49.404;11.152;2022-12-07T03:23:51;13.17;;;9.67;;
14768;SDS011;7476;49.404;11.152;2022-12-07T03:26:21;13.20;;;10.03;;
14768;SDS011;7476;49.404;11.152;2022-12-07T03:28:55;13.03;;;9.80;;
14768;SDS011;7476;49.404;11.152;2022-12-07T03:31:28;13.33;;;9.80;;
14768;SDS011;7476;49.404;11.152;2022-12-07T03:33:58;13.13;;;9.87;;
14768;SDS011;7476;49.404;11.152;2022-12-07T03:36:34;15.47;;;9.87;;
14768;SDS011;7476;49.404;11.152;2022-12-07T03:39:08;14.57;;;10.00;;
14768;SDS011;7476;49.404;11.152;2022-12-07T03:41:44;13.40;;;9.70;;
14768;SDS011;7476;49.404;11.152;2022-12-07T03:44:11;13.33;;;10.27;;
14768;SDS011;7476;49.404;11.152;2022-12-07T03:46:42;13.23;;;9.23;;
14768;SDS011;7476;49.404;11.152;2022-12-07T03:49:11;14.80;;;10.07;;
14768;SDS011;7476;49.404;11.152;2022-12-07T03:51:45;14.77;;;10.50;;
14768;SDS011;7476;49.404;11.152;2022-12-07T03:54:17;14.50;;;10.03;;
14768;SDS011;7476;49.404;11.152;2022-12-07T03:56:49;14.77;;;10.73;;
14768;SDS011;7476;49.404;11.152;2022-12-07T03:59:17;16.03;;;10.60;;
14768;SDS011;7476;49.404;11.152;2022-12-07T04:01:51;13.87;;;9.67;;
14768;SDS011;7476;49.404;11.152;2022-12-07T04:04:19;12.90;;;9.10;;
14768;SDS011;7476;49.404;11.152;2022-12-07T04:06:46;14.07;;;10.17;;
14768;SDS011;7476;49.404;11.152;2022-12-07T04:09:13;14.50;;;9.80;;
14768;SDS011;7476;49.404;11.152;2022-12-07T04:11:40;15.43;;;10.27;;
14768;SDS011;7476;49.404;11.152;2022-12-07T04:14:07;14.13;;;9.93;;
14768;SDS011;7476;49.404;11.152;2022-12-07T04:16:56;14.10;;;9.53;;
14768;SDS011;7476;49.404;11.152;2022-12-07T04:19:25;14.50;;;10.17;;
14768;SDS011;7476;49.404;11.152;2022-12-07T04:21:53;13.10;;;9.27;;
14768;SDS011;7476;49.404;11.152;2022-12-07T04:24:20;11.87;;;8.70;;
14768;SDS011;7476;49.404;11.152;2022-12-07T04:26:47;14.30;;;9.70;;
14768;SDS011;7476;49.404;11.152;2022-12-07T04:29:14;13.10;;;9.03;;
14768;SDS011;7476;49.404;11.152;2022-12-07T04:31:42;13.93;;;9.93;;
14768;SDS011;7476;49.404;11.152;2022-12-07T04:34:10;14.37;;;8.53;;
14768;SDS011;7476;49.404;11.152;2022-12-07T04:36:37;15.13;;;9.27;;
14768;SDS011;7476;49.404;11.152;2022-12-07T04:39:04;15.27;;;9.03;;
14768;SDS011;7476;49.404;11.152;2022-12-07T04:41:32;13.43;;;9.53;;
14768;SDS011;7476;49.404;11.152;2022-12-07T04:44:00;13.33;;;8.97;;
14768;SDS011;7476;49.404;11.152;2022-12-07T04:46:29;15.33;;;9.40;;
14768;SDS011;7476;49.404;11.152;2022-12-07T04:48:57;13.00;;;8.57;;
14768;SDS011;7476;49.404;11.152;2022-12-07T04:51:26;16.13;;;10.17;;
14768;SDS011;7476;49.404;11.152;2022-12-07T04:53:54;14.50;;;9.10;;
14768;SDS011;7476;49.404;11.152;2022-12-07T04:56:21;12.77;;;8.90;;
14768;SDS011;7476;49.404;11.152;2022-12-07T04:58:49;12.13;;;8.83;;
14768;SDS011;7476;49.404;11.152;2022-12-07T05:01:18;12.83;;;8.87;;
14768;SDS011;7476;49.404;11.152;2022-12-07T05:03:45;13.90;;;9.77;;
14768;SDS011;7476;49.404;11.152;2022-12-07T05:06:12;13.87;;;9.80;;
14768;SDS011;7476;49.404;11.152;2022-12-07T05:08:41;17.07;;;11.13;;
14768;SDS011;7476;49.404;11.152;2022-12-07T05:11:09;16.30;;;10.67;;
14768;SDS011;7476;49.404;11.152;2022-12-07T05:13:58;16.87;;;11.20;;
14768;SDS011;7476;49.404;11.152;2022-12-07T05:16:24;19.70;;;11.87;;
14768;SDS011;7476;49.404;11.152;2022-12-07T05:18:52;20.33;;;12.40;;
14768;SDS011;7476;49.404;11.152;2022-12-07T05:21:18;20.03;;;12.80;;
14768;SDS011;7476;49.404;11.152;2022-12-07T05:23:46;20.53;;;13.10;;
14768;SDS011;7476;49.404;11.152;2022-12-07T05:26:13;18.20;;;11.90;;
14768;SDS011;7476;49.404;11.152;2022-12-07T05:28:40;18.77;;;12.53;;
14768;SDS011;7476;49.404;11.152;2022-12-07T05:31:06;19.40;;;12.90;;
14768;SDS011;7476;49.404;11.152;2022-12-07T05:33:33;18.50;;;12.50;;
14768;SDS011;7476;49.404;11.152;2022-12-07T05:36:00;20.90;;;13.10;;
14768;SDS011;7476;49.404;11.152;2022-12-07T05:38:30;20.90;;;13.33;;
14768;SDS011;7476;49.404;11.152;2022-12-07T05:41:00;19.13;;;13.07;;
14768;SDS011;7476;49.404;11.152;2022-12-07T05:43:27;19.77;;;13.60;;
14768;SDS011;7476;49.404;11.152;2022-12-07T05:45:54;21.53;;;13.43;;
14768;SDS011;7476;49.404;11.152;2022-12-07T05:48:21;19.43;;;12.73;;
14768;SDS011;7476;49.404;11.152;2022-12-07T05:50:48;20.87;;;14.03;;
14768;SDS011;7476;49.404;11.152;2022-12-07T05:53:15;21.23;;;13.53;;
14768;SDS011;7476;49.404;11.152;2022-12-07T05:55:42;22.20;;;14.00;;
14768;SDS011;7476;49.404;11.152;2022-12-07T05:58:11;21.63;;;14.03;;
14768;SDS011;7476;49.404;11.152;2022-12-07T06:00:56;23.10;;;14.80;;
14768;SDS011;7476;49.404;11.152;2022-12-07T06:03:22;22.93;;;14.37;;
14768;SDS011;7476;49.404;11.152;2022-12-07T06:05:49;21.93;;;14.67;;
14768;SDS011;7476;49.404;11.152;2022-12-07T06:08:17;21.70;;;13.53;;
14768;SDS011;7476;49.404;11.152;2022-12-07T06:10:44;23.33;;;14.93;;
14768;SDS011;7476;49.404;11.152;2022-12-07T06:13:35;20.43;;;13.70;;
14768;SDS011;7476;49.404;11.152;2022-12-07T06:16:01;20.70;;;14.10;;
14768;SDS011;7476;49.404;11.152;2022-12-07T06:18:27;20.90;;;13.80;;
14768;SDS011;7476;49.404;11.152;2022-12-07T06:20:54;20.57;;;13.47;;
14768;SDS011;7476;49.404;11.152;2022-12-07T06:23:21;21.53;;;13.67;;
14768;SDS011;7476;49.404;11.152;2022-12-07T06:25:47;23.83;;;14.90;;
14768;SDS011;7476;49.404;11.152;2022-12-07T06:28:14;21.93;;;13.97;;
14768;SDS011;7476;49.404;11.152;2022-12-07T06:30:42;25.00;;;15.07;;
14768;SDS011;7476;49.404;11.152;2022-12-07T06:33:09;21.53;;;13.73;;
14768;SDS011;7476;49.404;11.152;2022-12-07T06:35:36;23.57;;;13.90;;
14768;SDS011;7476;49.404;11.152;2022-12-07T06:38:02;21.13;;;15.00;;
14768;SDS011;7476;49.404;11.152;2022-12-07T06:40:29;23.00;;;14.73;;
14768;SDS011;7476;49.404;11.152;2022-12-07T06:42:56;23.83;;;15.30;;
14768;SDS011;7476;49.404;11.152;2022-12-07T06:45:23;22.43;;;14.20;;
14768;SDS011;7476;49.404;11.152;2022-12-07T06:47:51;23.53;;;15.47;;
14768;SDS011;7476;49.404;11.152;2022-12-07T06:50:17;24.50;;;14.47;;
14768;SDS011;7476;49.404;11.152;2022-12-07T06:52:44;24.07;;;15.03;;
14768;SDS011;7476;49.404;11.152;2022-12-07T06:55:11;24.33;;;15.50;;
14768;SDS011;7476;49.404;11.152;2022-12-07T06:57:37;24.47;;;14.93;;
14768;SDS011;7476;49.404;11.152;2022-12-07T07:00:04;23.10;;;14.33;;
14768;SDS011;7476;49.404;11.152;2022-12-07T07:02:32;24.63;;;15.43;;
14768;SDS011;7476;49.404;11.152;2022-12-07T07:05:00;24.93;;;14.63;;
14768;SDS011;7476;49.404;11.152;2022-12-07T07:07:27;23.40;;;15.03;;
14768;SDS011;7476;49.404;11.152;2022-12-07T07:09:53;24.50;;;14.87;;
14768;SDS011;7476;49.404;11.152;2022-12-07T07:12:20;22.40;;;14.67;;
14768;SDS011;7476;49.404;11.152;2022-12-07T07:14:47;25.20;;;14.70;;
14768;SDS011;7476;49.404;11.152;2022-12-07T07:17:14;26.07;;;16.43;;
14768;SDS011;7476;49.404;11.152;2022-12-07T07:19:41;26.23;;;15.03;;
14768;SDS011;7476;49.404;11.152;2022-12-07T07:22:09;24.50;;;15.50;;
14768;SDS011;7476;49.404;11.152;2022-12-07T07:24:35;22.87;;;14.47;;
14768;SDS011;7476;49.404;11.152;2022-12-07T07:27:02;24.73;;;15.07;;
14768;SDS011;7476;49.404;11.152;2022-12-07T07:29:29;24.23;;;14.77;;
14768;SDS011;7476;49.404;11.152;2022-12-07T07:31:56;24.37;;;15.50;;
14768;SDS011;7476;49.404;11.152;2022-12-07T07:34:22;24.80;;;15.37;;
14768;SDS011;7476;49.404;11.152;2022-12-07T07:36:49;29.70;;;15.67;;
14768;SDS011;7476;49.404;11.152;2022-12-07T07:39:17;23.00;;;14.97;;
14768;SDS011;7476;49.404;11.152;2022-12-07T07:41:44;23.43;;;15.23;;
14768;SDS011;7476;49.404;11.152;2022-12-07T07:44:11;24.43;;;14.30;;
14768;SDS011;7476;49.404;11.152;2022-12-07T07:46:37;26.53;;;15.23;;
14768;SDS011;7476;49.404;11.152;2022-12-07T07:49:04;25.87;;;15.00;;
14768;SDS011;7476;49.404;11.152;2022-12-07T07:51:31;24.67;;;14.77;;
14768;SDS011;7476;49.404;11.152;2022-12-07T07:53:57;26.70;;;15.90;;
14768;SDS011;7476;49.404;11.152;2022-12-07T07:56:25;26.03;;;15.67;;
14768;SDS011;7476;49.404;11.152;2022-12-07T07:58:52;24.60;;;15.33;;
14768;SDS011;7476;49.404;11.152;2022-12-07T08:01:19;24.60;;;15.43;;
14768;SDS011;7476;49.404;11.152;2022-12-07T08:03:46;24.97;;;15.43;;
14768;SDS011;7476;49.404;11.152;2022-12-07T08:06:13;22.43;;;14.60;;
14768;SDS011;7476;49.404;11.152;2022-12-07T08:08:39;26.57;;;15.20;;
14768;SDS011;7476;49.404;11.152;2022-12-07T08:11:06;23.57;;;14.63;;
14768;SDS011;7476;49.404;11.152;2022-12-07T08:13:36;26.23;;;16.03;;
14768;SDS011;7476;49.404;11.152;2022-12-07T08:16:03;22.90;;;14.13;;
14768;SDS011;7476;49.404;11.152;2022-12-07T08:18:30;23.80;;;15.00;;
14768;SDS011;7476;49.404;11.152;2022-12-07T08:21:00;27.27;;;15.97;;
14768;SDS011;7476;49.404;11.152;2022-12-07T08:23:27;23.07;;;15.60;;
14768;SDS011;7476;49.404;11.152;2022-12-07T08:25:54;26.23;;;15.67;;
14768;SDS011;7476;49.404;11.152;2022-12-07T08:28:21;29.97;;;15.77;;
14768;SDS011;7476;49.404;11.152;2022-12-07T08:30:49;25.67;;;15.53;;
14768;SDS011;7476;49.404;11.152;2022-12-07T08:33:16;25.07;;;13.97;;
14768;SDS011;7476;49.404;11.152;2022-12-07T08:35:43;24.13;;;14.83;;
14768;SDS011;7476;49.404;11.152;2022-12-07T08:38:10;23.53;;;14.10;;
14768;SDS011;7476;49.404;11.152;2022-12-07T08:40:36;23.33;;;14.80;;
14768;SDS011;7476;49.404;11.152;2022-12-07T08:43:03;23.30;;;14.33;;
14768;SDS011;7476;49.404;11.152;2022-12-07T08:45:30;26.17;;;16.30;;
14768;SDS011;7476;49.404;11.152;2022-12-07T08:48:03;24.33;;;15.07;;
14768;SDS011;7476;49.404;11.152;2022-12-07T08:50:33;20.07;;;13.33;;
14768;SDS011;7476;49.404;11.152;2022-12-07T08:53:01;20.90;;;13.80;;
14768;SDS011;7476;49.404;11.152;2022-12-07T08:55:30;22.40;;;14.20;;
14768;SDS011;7476;49.404;11.152;2022-12-07T08:57:59;22.03;;;13.87;;
14768;SDS011;7476;49.404;11.152;2022-12-07T09:00:26;20.20;;;13.03;;
14768;SDS011;7476;49.404;11.152;2022-12-07T09:02:53;20.40;;;13.20;;
14768;SDS011;7476;49.404;11.152;2022-12-07T09:05:21;18.80;;;12.40;;
14768;SDS011;7476;49.404;11.152;2022-12-07T09:07:49;19.27;;;12.13;;
14768;SDS011;7476;49.404;11.152;2022-12-07T09:10:18;17.70;;;12.47;;
14768;SDS011;7476;49.404;11.152;2022-12-07T09:12:45;16.63;;;11.70;;
14768;SDS011;7476;49.404;11.152;2022-12-07T09:15:12;18.47;;;12.07;;
14768;SDS011;7476;49.404;11.152;2022-12-07T09:17:38;17.07;;;12.07;;
14768;SDS011;7476;49.404;11.152;2022-12-07T09:20:06;15.53;;;10.90;;
14768;SDS011;7476;49.404;11.152;2022-12-07T09:22:34;16.77;;;11.07;;
14768;SDS011;7476;49.404;11.152;2022-12-07T09:25:01;18.23;;;11.63;;
14768;SDS011;7476;49.404;11.152;2022-12-07T09:27:29;16.93;;;11.63;;
14768;SDS011;7476;49.404;11.152;2022-12-07T09:29:56;18.93;;;12.40;;
14768;SDS011;7476;49.404;11.152;2022-12-07T09:32:22;18.30;;;11.30;;
14768;SDS011;7476;49.404;11.152;2022-12-07T09:34:49;14.57;;;10.27;;
14768;SDS011;7476;49.404;11.152;2022-12-07T09:37:16;17.17;;;11.03;;
14768;SDS011;7476;49.404;11.152;2022-12-07T09:39:47;17.07;;;11.03;;
14768;SDS011;7476;49.404;11.152;2022-12-07T09:42:18;17.30;;;11.27;;
14768;SDS011;7476;49.404;11.152;2022-12-07T09:44:55;17.07;;;10.67;;
14768;SDS011;7476;49.404;11.152;2022-12-07T09:47:23;17.93;;;11.23;;
14768;SDS011;7476;49.404;11.152;2022-12-07T09:49:49;15.60;;;10.50;;
14768;SDS011;7476;49.404;11.152;2022-12-07T09:52:17;16.17;;;10.20;;
14768;SDS011;7476;49.404;11.152;2022-12-07T09:54:49;16.90;;;11.13;;
14768;SDS011;7476;49.404;11.152;2022-12-07T09:57:17;16.17;;;10.20;;
14768;SDS011;7476;49.404;11.152;2022-12-07T09:59:47;16.73;;;10.67;;
14768;SDS011;7476;49.404;11.152;2022-12-07T10:02:22;17.07;;;10.47;;
14768;SDS011;7476;49.404;11.152;2022-12-07T10:04:52;17.37;;;11.57;;
14768;SDS011;7476;49.404;11.152;2022-12-07T10:07:19;16.37;;;11.03;;
14768;SDS011;7476;49.404;11.152;2022-12-07T10:09:45;16.83;;;10.93;;
14768;SDS011;7476;49.404;11.152;2022-12-07T10:12:14;17.37;;;10.87;;
14768;SDS011;7476;49.404;11.152;2022-12-07T10:14:53;17.43;;;10.77;;
14768;SDS011;7476;49.404;11.152;2022-12-07T10:17:32;14.50;;;10.00;;
14768;SDS011;7476;49.404;11.152;2022-12-07T10:20:14;17.00;;;10.97;;
14768;SDS011;7476;49.404;11.152;2022-12-07T10:22:57;16.30;;;10.83;;
14768;SDS011;7476;49.404;11.152;2022-12-07T10:25:26;18.17;;;11.40;;
14768;SDS011;7476;49.404;11.152;2022-12-07T10:27:58;14.70;;;10.63;;
14768;SDS011;7476;49.404;11.152;2022-12-07T10:30:27;16.03;;;10.77;;
14768;SDS011;7476;49.404;11.152;2022-12-07T10:32:55;16.27;;;10.70;;
14768;SDS011;7476;49.404;11.152;2022-12-07T10:35:23;16.30;;;11.23;;
14768;SDS011;7476;49.404;11.152;2022-12-07T10:37:52;15.97;;;10.37;;
14768;SDS011;7476;49.404;11.152;2022-12-07T10:40:24;15.90;;;11.20;;
14768;SDS011;7476;49.404;11.152;2022-12-07T10:43:01;15.00;;;10.43;;
14768;SDS011;7476;49.404;11.152;2022-12-07T10:45:30;15.50;;;10.20;;
14768;SDS011;7476;49.404;11.152;2022-12-07T10:47:59;14.30;;;9.93;;
14768;SDS011;7476;49.404;11.152;2022-12-07T10:50:47;14.53;;;10.50;;
14768;SDS011;7476;49.404;11.152;2022-12-07T10:53:28;13.63;;;9.43;;
14768;SDS011;7476;49.404;11.152;2022-12-07T10:56:11;14.47;;;9.77;;
14768;SDS011;7476;49.404;11.152;2022-12-07T10:58:57;13.33;;;9.93;;
14768;SDS011;7476;49.404;11.152;2022-12-07T11:01:36;13.90;;;9.80;;
14768;SDS011;7476;49.404;11.152;2022-12-07T11:04:15;14.00;;;9.90;;
14768;SDS011;7476;49.404;11.152;2022-12-07T11:06:51;14.50;;;9.20;;
14768;SDS011;7476;49.404;11.152;2022-12-07T11:09:30;12.53;;;8.97;;
14768;SDS011;7476;49.404;11.152;2022-12-07T11:12:15;16.40;;;10.10;;
14768;SDS011;7476;49.404;11.152;2022-12-07T11:14:50;14.17;;;9.60;;
14768;SDS011;7476;49.404;11.152;2022-12-07T11:17:23;14.20;;;10.10;;
14768;SDS011;7476;49.404;11.152;2022-12-07T11:20:01;13.90;;;9.53;;
14768;SDS011;7476;49.404;11.152;2022-12-07T11:22:41;10.80;;;8.80;;
14768;SDS011;7476;49.404;11.152;2022-12-07T11:25:18;14.07;;;9.53;;
14768;SDS011;7476;49.404;11.152;2022-12-07T11:27:54;14.23;;;9.70;;
14768;SDS011;7476;49.404;11.152;2022-12-07T11:30:31;11.87;;;9.03;;
14768;SDS011;7476;49.404;11.152;2022-12-07T11:33:07;13.93;;;9.53;;
14768;SDS011;7476;49.404;11.152;2022-12-07T11:35:45;13.90;;;9.50;;
14768;SDS011;7476;49.404;11.152;2022-12-07T11:38:18;13.63;;;9.57;;
14768;SDS011;7476;49.404;11.152;2022-12-07T11:40:48;12.03;;;9.13;;
14768;SDS011;7476;49.404;11.152;2022-12-07T11:43:19;15.17;;;9.63;;
14768;SDS011;7476;49.404;11.152;2022-12-07T11:45:54;14.47;;;9.70;;
14768;SDS011;7476;49.404;11.152;2022-12-07T11:48:29;12.73;;;9.33;;
14768;SDS011;7476;49.404;11.152;2022-12-07T11:51:00;13.27;;;9.57;;
14768;SDS011;7476;49.404;11.152;2022-12-07T11:53:30;12.93;;;9.17;;
14768;SDS011;7476;49.404;11.152;2022-12-07T11:56:02;12.43;;;9.60;;
14768;SDS011;7476;49.404;11.152;2022-12-07T11:58:42;11.97;;;9.73;;
14768;SDS011;7476;49.404;11.152;2022-12-07T12:01:18;12.63;;;9.00;;
14768;SDS011;7476;49.404;11.152;2022-12-07T12:03:54;16.03;;;10.27;;
14768;SDS011;7476;49.404;11.152;2022-12-07T12:06:26;14.60;;;9.93;;
14768;SDS011;7476;49.404;11.152;2022-12-07T12:08:53;12.57;;;9.53;;
14768;SDS011;7476;49.404;11.152;2022-12-07T12:11:29;13.90;;;9.93;;
14768;SDS011;7476;49.404;11.152;2022-12-07T12:14:16;15.07;;;9.23;;
14768;SDS011;7476;49.404;11.152;2022-12-07T12:16:58;13.20;;;9.53;;
14768;SDS011;7476;49.404;11.152;2022-12-07T12:19:42;13.13;;;9.13;;
14768;SDS011;7476;49.404;11.152;2022-12-07T12:22:23;11.33;;;9.40;;
14768;SDS011;7476;49.404;11.152;2022-12-07T12:24:56;13.23;;;10.03;;
14768;SDS011;7476;49.404;11.152;2022-12-07T12:27:24;13.73;;;9.80;;
14768;SDS011;7476;49.404;11.152;2022-12-07T12:29:55;12.53;;;9.10;;
14768;SDS011;7476;49.404;11.152;2022-12-07T12:32:30;12.63;;;9.07;;
14768;SDS011;7476;49.404;11.152;2022-12-07T12:35:19;14.40;;;8.93;;
14768;SDS011;7476;49.404;11.152;2022-12-07T12:37:53;13.47;;;9.40;;
14768;SDS011;7476;49.404;11.152;2022-12-07T12:58:31;13.27;;;8.97;;
14768;SDS011;7476;49.404;11.152;2022-12-07T13:07:47;14.53;;;8.83;;
14768;SDS011;7476;49.404;11.152;2022-12-07T13:13:28;12.23;;;9.47;;
14768;SDS011;7476;49.404;11.152;2022-12-07T13:22:35;13.90;;;9.00;;
14768;SDS011;7476;49.404;11.152;2022-12-07T13:25:20;11.33;;;9.03;;
14768;SDS011;7476;49.404;11.152;2022-12-07T13:28:01;12.07;;;9.03;;
14768;SDS011;7476;49.404;11.152;2022-12-07T13:30:34;11.47;;;8.90;;
14768;SDS011;7476;49.404;11.152;2022-12-07T13:33:10;12.33;;;9.57;;
14768;SDS011;7476;49.404;11.152;2022-12-07T13:35:38;16.23;;;10.00;;
14768;SDS011;7476;49.404;11.152;2022-12-07T13:38:15;11.97;;;9.10;;
14768;SDS011;7476;49.404;11.152;2022-12-07T13:40:59;11.80;;;9.43;;
14768;SDS011;7476;49.404;11.152;2022-12-07T13:43:29;12.23;;;9.17;;
14768;SDS011;7476;49.404;11.152;2022-12-07T13:45:56;11.60;;;8.57;;
14768;SDS011;7476;49.404;11.152;2022-12-07T13:48:24;12.03;;;8.90;;
14768;SDS011;7476;49.404;11.152;2022-12-07T13:50:57;14.07;;;10.07;;
14768;SDS011;7476;49.404;11.152;2022-12-07T13:53:27;14.00;;;10.10;;
14768;SDS011;7476;49.404;11.152;2022-12-07T13:55:55;14.67;;;10.63;;
14768;SDS011;7476;49.404;11.152;2022-12-07T13:58:23;15.80;;;11.00;;
14768;SDS011;7476;49.404;11.152;2022-12-07T14:00:51;14.90;;;10.27;;
14768;SDS011;7476;49.404;11.152;2022-12-07T14:03:28;15.00;;;10.77;;
14768;SDS011;7476;49.404;11.152;2022-12-07T14:06:04;16.93;;;10.57;;
14768;SDS011;7476;49.404;11.152;2022-12-07T14:08:34;16.77;;;11.53;;
14768;SDS011;7476;49.404;11.152;2022-12-07T14:11:01;17.30;;;11.67;;
14768;SDS011;7476;49.404;11.152;2022-12-07T14:13:29;17.83;;;11.33;;
14768;SDS011;7476;49.404;11.152;2022-12-07T14:15:59;16.17;;;11.70;;
14768;SDS011;7476;49.404;11.152;2022-12-07T14:18:27;18.63;;;13.47;;
14768;SDS011;7476;49.404;11.152;2022-12-07T14:21:04;17.20;;;12.90;;
14768;SDS011;7476;49.404;11.152;2022-12-07T14:23:33;15.90;;;11.40;;
14768;SDS011;7476;49.404;11.152;2022-12-07T14:26:05;18.53;;;13.10;;
14768;SDS011;7476;49.404;11.152;2022-12-07T14:28:34;18.83;;;11.90;;
14768;SDS011;7476;49.404;11.152;2022-12-07T14:31:02;14.80;;;11.13;;
14768;SDS011;7476;49.404;11.152;2022-12-07T14:33:34;17.60;;;12.40;;
14768;SDS011;7476;49.404;11.152;2022-12-07T14:36:00;15.73;;;11.27;;
14768;SDS011;7476;49.404;11.152;2022-12-07T14:38:27;18.37;;;11.80;;
14768;SDS011;7476;49.404;11.152;2022-12-07T14:40:55;16.83;;;11.67;;
14768;SDS011;7476;49.404;11.152;2022-12-07T14:43:44;16.50;;;11.60;;
14768;SDS011;7476;49.404;11.152;2022-12-07T14:46:10;18.50;;;12.33;;
14768;SDS011;7476;49.404;11.152;2022-12-07T14:48:37;15.73;;;10.77;;
14768;SDS011;7476;49.404;11.152;2022-12-07T14:51:04;15.80;;;10.43;;
14768;SDS011;7476;49.404;11.152;2022-12-07T14:53:31;16.63;;;10.87;;
14768;SDS011;7476;49.404;11.152;2022-12-07T14:56:03;16.00;;;10.90;;
14768;SDS011;7476;49.404;11.152;2022-12-07T14:58:31;16.93;;;10.47;;
14768;SDS011;7476;49.404;11.152;2022-12-07T15:00:58;15.07;;;10.90;;
14768;SDS011;7476;49.404;11.152;2022-12-07T15:03:25;16.90;;;10.47;;
14768;SDS011;7476;49.404;11.152;2022-12-07T15:05:52;15.33;;;10.43;;
14768;SDS011;7476;49.404;11.152;2022-12-07T15:08:19;13.40;;;10.70;;
14768;SDS011;7476;49.404;11.152;2022-12-07T15:10:46;15.30;;;10.27;;
14768;SDS011;7476;49.404;11.152;2022-12-07T15:13:14;15.73;;;11.30;;
14768;SDS011;7476;49.404;11.152;2022-12-07T15:16:04;15.83;;;10.37;;
14768;SDS011;7476;49.404;11.152;2022-12-07T15:18:34;14.97;;;10.43;;
14768;SDS011;7476;49.404;11.152;2022-12-07T15:21:00;14.43;;;10.53;;
14768;SDS011;7476;49.404;11.152;2022-12-07T15:23:28;16.33;;;11.20;;
14768;SDS011;7476;49.404;11.152;2022-12-07T15:25:56;16.43;;;11.33;;
14768;SDS011;7476;49.404;11.152;2022-12-07T15:28:24;15.50;;;10.20;;